Avondale, Ohio
Current Conditions -  °F | °C
As of 12:53 AM on Sunday 26 Oct 2014 (Local Time) from KLUK Reporting Station
Clear Clear  
Wind Chill: 18°   Ceiling: Unl
Heat Index: 18°   Visibility: 10mi
Dew Point:   Wind: 6mph
Humidity: 56%   Direction: 280°W
Pressure: 29.94"   Gusts: NA
Location:  39.1532°N, 84.4859°W
Report Text: KLUK 260453Z AUTO 28005KT 10SM CLR 18/09 A2994 RMK AO2 SLP136 T01780089 402280044
Loading
Personal Weather Stations






























Interactive Weather Map New forecast layout! Learn more

10-Day Weather Forecast

Advertisements
Track Severe Weather on mobile